KCAO/CAO METAR and TAF weather

Enter ICAO airport designator
Station Type Date Time Source
KCAO METAR 2022/06/29 00:55 UTC NOAA

KCAO 290055Z AUTO 13009KT 10SM CLR 28/06 A3024 RMK AO2 SLP181 T02780061


Station Type Date Time Source
KCAO Decoded METAR 2022/06/29 00:55 UTC NOAA

CLAYTON MUNICIPAL AIRPARK, NM, United States (KCAO) 36-27N 103-09W 1514M
Jun 28, 2022 - 08:55 PM EDT / 2022.06.29 0055 UTC
Wind: from the SE (130 degrees) at 10 MPH (9 KT):0
Visibility: 10 mile(s):0
Sky conditions: clear
Temperature: 82.0 F (27.8 C)
Dew Point: 43.0 F (6.1 C)
Relative Humidity: 25%
Pressure (altimeter): 30.24 in. Hg (1024 hPa)
ob: KCAO 290055Z AUTO 13009KT 10SM CLR 28/06 A3024 RMK AO2 SLP181 T02780061
cycle: 1

Station Type Date Time Source
KCAO TAF UTC NOAA

Error!

Example: see airport list